Spencer, ID (83446)

11:51 AM MDT on September 27, 2016 (GMT -0600)
ARLFRD | | Change Station

Elev 5464 ft 44.24 °N, 112.20 °W | Updated 36 minutes ago

Clear
Clear
66 °F
Feels Like 66 °F
N
3
Wind Variable Wind from SSW
Gusts 4.0 mph

Today
High -- | Low -- °F
--% Chance of Precip.
Yesterday
High -- | Low -- °F
Precip. -- in
Pressure 30.22 in
Visibility 10.0 miles
Clouds Clear
Dew Point 37 °F
Humidity 34%
Rainfall in
Snow Depth Not available.
7:21 AM 7:15 PM
Waning Crescent, 10% visible
METAR KRXE 271653Z AUTO 00000KT 10SM CLR 13/08 A3027 RMK AO2 SLP233 T01330083
Pressure 30.22 in
Visibility 10.0 miles
Clouds Clear
Dew Point 37 °F
Humidity 34%
Rainfall in
Snow Depth Not available.
7:21 AM 7:15 PM
Waning Crescent, 10% visible
METAR KRXE 271653Z AUTO 00000KT 10SM CLR 13/08 A3027 RMK AO2 SLP233 T01330083

10-Day Weather Forecast

Almanac

Astronomy

Sep. 27, 2016 Rise Set
Actual Time
Civil Twilight
Nautical Twilight
Astronomical Twilight
Moon
Length of Visible Light
Length of Day
Tomorrow will be .
, % of the Moon is Illuminated

Today's Extremes

State Highs State Lows

Community

WunderPhotos

Upload Photos

1,942,135 photos uploaded!

WunderBlog® & News

Nearby

Air Quality

  Air Quality AQ Index Pollutant
Not available.

Snow Depth

Station Depth Elevation

Earthquake Activity

City Distance Mag. Time & Date
Minimum magnitude displayed is 2.5.

Coastal Water Temperatures

Place Temperature

Stations

Nearby Weather Stations

Station Location Temp. Windchill Dew Point Humidity Wind Precip. Elev Updated Type
                   

Watches & Warnings

There are currently no watches in effect.